<?xml version="1.0" encoding="utf-8"?>
<gpx xmlns:xsi="http://www.w3.org/2001/XMLSchema-instance" xmlns:xsd="http://www.w3.org/2001/XMLSchema" version="1.1" creator="Shapelink.com" xmlns="http://www.topografix.com/GPX/1/1" xmlns:gpxtpx="http://www.garmin.com/xmlschemas/TrackPointExtension/v1">
  <metadata>
    <name>Laufen 4.26 km, 2011-03-26</name>
    <desc></desc>
    <author><name>Jessica Ternander</name></author> 
    <time>2011-03-26T17:07:16Z</time>
  </metadata>
  <trk>
    <name>Laufen 4.26 km, 2011-03-26</name>
    <trkseg>
      <trkpt lat="59.2993154" lon="18.5073835">
        <ele>16.9604</ele>
        <time>2011-03-26T17:07:16Z</time>
      </trkpt>
      <trkpt lat="59.2993432" lon="18.5071071">
        <ele>18.8831</ele>
        <time>2011-03-26T17:07:22Z</time>
      </trkpt>
      <trkpt lat="59.2993123" lon="18.5069135">
        <ele>19.3638</ele>
        <time>2011-03-26T17:07:26Z</time>
      </trkpt>
      <trkpt lat="59.2993065" lon="18.5068653">
        <ele>19.3638</ele>
        <time>2011-03-26T17:07:27Z</time>
      </trkpt>
      <trkpt lat="59.2992762" lon="18.5065509">
        <ele>20.325</ele>
        <time>2011-03-26T17:07:33Z</time>
      </trkpt>
      <trkpt lat="59.2992303" lon="18.506305">
        <ele>21.767</ele>
        <time>2011-03-26T17:07:38Z</time>
      </trkpt>
      <trkpt lat="59.2991883" lon="18.5060972">
        <ele>23.209</ele>
        <time>2011-03-26T17:07:42Z</time>
      </trkpt>
      <trkpt lat="59.2991665" lon="18.5057869">
        <ele>24.651</ele>
        <time>2011-03-26T17:07:48Z</time>
      </trkpt>
      <trkpt lat="59.2991424" lon="18.5054751">
        <ele>27.0543</ele>
        <time>2011-03-26T17:07:54Z</time>
      </trkpt>
      <trkpt lat="59.2991804" lon="18.5052813">
        <ele>28.0155</ele>
        <time>2011-03-26T17:07:58Z</time>
      </trkpt>
      <trkpt lat="59.2993298" lon="18.5051461">
        <ele>31.3801</ele>
        <time>2011-03-26T17:08:04Z</time>
      </trkpt>
      <trkpt lat="59.2994603" lon="18.5050434">
        <ele>32.3416</ele>
        <time>2011-03-26T17:08:09Z</time>
      </trkpt>
      <trkpt lat="59.299537" lon="18.5048594">
        <ele>32.8223</ele>
        <time>2011-03-26T17:08:14Z</time>
      </trkpt>
      <trkpt lat="59.2995943" lon="18.5046674">
        <ele>32.8223</ele>
        <time>2011-03-26T17:08:19Z</time>
      </trkpt>
      <trkpt lat="59.2996359" lon="18.5044606">
        <ele>33.7834</ele>
        <time>2011-03-26T17:08:24Z</time>
      </trkpt>
      <trkpt lat="59.2996638" lon="18.5043225">
        <ele>34.7449</ele>
        <time>2011-03-26T17:08:27Z</time>
      </trkpt>
      <trkpt lat="59.2997181" lon="18.5040872">
        <ele>36.1868</ele>
        <time>2011-03-26T17:08:32Z</time>
      </trkpt>
      <trkpt lat="59.299772" lon="18.5038576">
        <ele>36.1868</ele>
        <time>2011-03-26T17:08:37Z</time>
      </trkpt>
      <trkpt lat="59.2998097" lon="18.5036704">
        <ele>35.7061</ele>
        <time>2011-03-26T17:08:41Z</time>
      </trkpt>
      <trkpt lat="59.2998802" lon="18.5034589">
        <ele>35.7061</ele>
        <time>2011-03-26T17:08:46Z</time>
      </trkpt>
      <trkpt lat="59.2999265" lon="18.5032988">
        <ele>34.7449</ele>
        <time>2011-03-26T17:08:50Z</time>
      </trkpt>
      <trkpt lat="59.300029" lon="18.5030316">
        <ele>35.2255</ele>
        <time>2011-03-26T17:08:57Z</time>
      </trkpt>
      <trkpt lat="59.3001009" lon="18.5028328">
        <ele>35.7061</ele>
        <time>2011-03-26T17:09:02Z</time>
      </trkpt>
      <trkpt lat="59.3001563" lon="18.5026603">
        <ele>35.7061</ele>
        <time>2011-03-26T17:09:06Z</time>
      </trkpt>
      <trkpt lat="59.3002053" lon="18.5024705">
        <ele>34.2642</ele>
        <time>2011-03-26T17:09:10Z</time>
      </trkpt>
      <trkpt lat="59.3002271" lon="18.5023236">
        <ele>36.1868</ele>
        <time>2011-03-26T17:09:13Z</time>
      </trkpt>
      <trkpt lat="59.3002622" lon="18.5020666">
        <ele>35.7061</ele>
        <time>2011-03-26T17:09:18Z</time>
      </trkpt>
      <trkpt lat="59.300301" lon="18.5018332">
        <ele>35.2255</ele>
        <time>2011-03-26T17:09:23Z</time>
      </trkpt>
      <trkpt lat="59.3003469" lon="18.5015459">
        <ele>36.6675</ele>
        <time>2011-03-26T17:09:29Z</time>
      </trkpt>
      <trkpt lat="59.3003838" lon="18.50135">
        <ele>37.1481</ele>
        <time>2011-03-26T17:09:33Z</time>
      </trkpt>
      <trkpt lat="59.300427" lon="18.501109">
        <ele>37.6287</ele>
        <time>2011-03-26T17:09:38Z</time>
      </trkpt>
      <trkpt lat="59.3004637" lon="18.5008191">
        <ele>38.5901</ele>
        <time>2011-03-26T17:09:44Z</time>
      </trkpt>
      <trkpt lat="59.3005108" lon="18.5005929">
        <ele>39.0707</ele>
        <time>2011-03-26T17:09:49Z</time>
      </trkpt>
      <trkpt lat="59.3005412" lon="18.5003835">
        <ele>40.0321</ele>
        <time>2011-03-26T17:09:53Z</time>
      </trkpt>
      <trkpt lat="59.3005906" lon="18.5001224">
        <ele>40.0321</ele>
        <time>2011-03-26T17:09:59Z</time>
      </trkpt>
      <trkpt lat="59.3006465" lon="18.4998665">
        <ele>38.5901</ele>
        <time>2011-03-26T17:10:05Z</time>
      </trkpt>
      <trkpt lat="59.3006793" lon="18.4996251">
        <ele>37.6287</ele>
        <time>2011-03-26T17:10:10Z</time>
      </trkpt>
      <trkpt lat="59.3007303" lon="18.4992817">
        <ele>36.1868</ele>
        <time>2011-03-26T17:10:17Z</time>
      </trkpt>
      <trkpt lat="59.3007859" lon="18.4990543">
        <ele>34.2642</ele>
        <time>2011-03-26T17:10:22Z</time>
      </trkpt>
      <trkpt lat="59.3008049" lon="18.4987858">
        <ele>32.8223</ele>
        <time>2011-03-26T17:10:27Z</time>
      </trkpt>
      <trkpt lat="59.3008401" lon="18.4986197">
        <ele>29.4575</ele>
        <time>2011-03-26T17:10:31Z</time>
      </trkpt>
      <trkpt lat="59.3008956" lon="18.4983419">
        <ele>27.5349</ele>
        <time>2011-03-26T17:10:37Z</time>
      </trkpt>
      <trkpt lat="59.3009334" lon="18.4981545">
        <ele>27.0543</ele>
        <time>2011-03-26T17:10:41Z</time>
      </trkpt>
      <trkpt lat="59.3009765" lon="18.4979602">
        <ele>27.0543</ele>
        <time>2011-03-26T17:10:45Z</time>
      </trkpt>
      <trkpt lat="59.301052" lon="18.4977888">
        <ele>26.5736</ele>
        <time>2011-03-26T17:10:50Z</time>
      </trkpt>
      <trkpt lat="59.3011903" lon="18.4975417">
        <ele>24.651</ele>
        <time>2011-03-26T17:10:57Z</time>
      </trkpt>
      <trkpt lat="59.3012887" lon="18.4973821">
        <ele>23.209</ele>
        <time>2011-03-26T17:11:02Z</time>
      </trkpt>
      <trkpt lat="59.3013018" lon="18.497219">
        <ele>21.767</ele>
        <time>2011-03-26T17:11:06Z</time>
      </trkpt>
      <trkpt lat="59.3012448" lon="18.4969942">
        <ele>19.3638</ele>
        <time>2011-03-26T17:11:12Z</time>
      </trkpt>
      <trkpt lat="59.3011899" lon="18.4967937">
        <ele>17.9218</ele>
        <time>2011-03-26T17:11:17Z</time>
      </trkpt>
      <trkpt lat="59.3011224" lon="18.4965408">
        <ele>16.9604</ele>
        <time>2011-03-26T17:11:23Z</time>
      </trkpt>
      <trkpt lat="59.3010633" lon="18.4963305">
        <ele>15.5184</ele>
        <time>2011-03-26T17:11:28Z</time>
      </trkpt>
      <trkpt lat="59.3010535" lon="18.4962922">
        <ele>15.5184</ele>
        <time>2011-03-26T17:11:29Z</time>
      </trkpt>
      <trkpt lat="59.3010108" lon="18.4961182">
        <ele>15.0377</ele>
        <time>2011-03-26T17:11:33Z</time>
      </trkpt>
      <trkpt lat="59.3009407" lon="18.4958484">
        <ele>14.557</ele>
        <time>2011-03-26T17:11:39Z</time>
      </trkpt>
      <trkpt lat="59.3008943" lon="18.4956725">
        <ele>14.0764</ele>
        <time>2011-03-26T17:11:43Z</time>
      </trkpt>
      <trkpt lat="59.3008511" lon="18.4954832">
        <ele>15.5184</ele>
        <time>2011-03-26T17:11:47Z</time>
      </trkpt>
      <trkpt lat="59.3007942" lon="18.4952526">
        <ele>17.4412</ele>
        <time>2011-03-26T17:11:52Z</time>
      </trkpt>
      <trkpt lat="59.3007473" lon="18.4950496">
        <ele>18.8831</ele>
        <time>2011-03-26T17:11:56Z</time>
      </trkpt>
      <trkpt lat="59.300649" lon="18.4947366">
        <ele>18.8831</ele>
        <time>2011-03-26T17:12:03Z</time>
      </trkpt>
      <trkpt lat="59.3006067" lon="18.4945579">
        <ele>18.4023</ele>
        <time>2011-03-26T17:12:07Z</time>
      </trkpt>
      <trkpt lat="59.3005626" lon="18.4943299">
        <ele>18.4023</ele>
        <time>2011-03-26T17:12:12Z</time>
      </trkpt>
      <trkpt lat="59.3005029" lon="18.4941165">
        <ele>18.4023</ele>
        <time>2011-03-26T17:12:17Z</time>
      </trkpt>
      <trkpt lat="59.3004304" lon="18.4938483">
        <ele>18.4023</ele>
        <time>2011-03-26T17:12:23Z</time>
      </trkpt>
      <trkpt lat="59.300369" lon="18.4936162">
        <ele>18.8831</ele>
        <time>2011-03-26T17:12:28Z</time>
      </trkpt>
      <trkpt lat="59.3003153" lon="18.4933981">
        <ele>18.8831</ele>
        <time>2011-03-26T17:12:33Z</time>
      </trkpt>
      <trkpt lat="59.3002666" lon="18.4932244">
        <ele>19.3638</ele>
        <time>2011-03-26T17:12:37Z</time>
      </trkpt>
      <trkpt lat="59.3002014" lon="18.4930081">
        <ele>19.8444</ele>
        <time>2011-03-26T17:12:42Z</time>
      </trkpt>
      <trkpt lat="59.3001307" lon="18.4927445">
        <ele>20.8057</ele>
        <time>2011-03-26T17:12:48Z</time>
      </trkpt>
      <trkpt lat="59.3000737" lon="18.4925251">
        <ele>20.325</ele>
        <time>2011-03-26T17:12:53Z</time>
      </trkpt>
      <trkpt lat="59.3000104" lon="18.4922554">
        <ele>19.8444</ele>
        <time>2011-03-26T17:12:59Z</time>
      </trkpt>
      <trkpt lat="59.2999524" lon="18.4920397">
        <ele>19.3638</ele>
        <time>2011-03-26T17:13:04Z</time>
      </trkpt>
      <trkpt lat="59.2998877" lon="18.4917869">
        <ele>19.3638</ele>
        <time>2011-03-26T17:13:10Z</time>
      </trkpt>
      <trkpt lat="59.2998468" lon="18.4915835">
        <ele>18.8831</ele>
        <time>2011-03-26T17:13:14Z</time>
      </trkpt>
      <trkpt lat="59.2997934" lon="18.4913414">
        <ele>19.3638</ele>
        <time>2011-03-26T17:13:19Z</time>
      </trkpt>
      <trkpt lat="59.2997385" lon="18.49107">
        <ele>18.4023</ele>
        <time>2011-03-26T17:13:25Z</time>
      </trkpt>
      <trkpt lat="59.2996805" lon="18.4908252">
        <ele>16.9604</ele>
        <time>2011-03-26T17:13:30Z</time>
      </trkpt>
      <trkpt lat="59.2996602" lon="18.4907345">
        <ele>15.999</ele>
        <time>2011-03-26T17:13:32Z</time>
      </trkpt>
      <trkpt lat="59.2996147" lon="18.4904662">
        <ele>14.557</ele>
        <time>2011-03-26T17:13:38Z</time>
      </trkpt>
      <trkpt lat="59.2995485" lon="18.4902139">
        <ele>11.6732</ele>
        <time>2011-03-26T17:13:44Z</time>
      </trkpt>
      <trkpt lat="59.299495" lon="18.4900304">
        <ele>11.1925</ele>
        <time>2011-03-26T17:13:48Z</time>
      </trkpt>
      <trkpt lat="59.2994566" lon="18.4898202">
        <ele>11.1925</ele>
        <time>2011-03-26T17:13:52Z</time>
      </trkpt>
      <trkpt lat="59.2993944" lon="18.4895033">
        <ele>11.1925</ele>
        <time>2011-03-26T17:13:58Z</time>
      </trkpt>
      <trkpt lat="59.2993547" lon="18.4892561">
        <ele>9.75061</ele>
        <time>2011-03-26T17:14:03Z</time>
      </trkpt>
      <trkpt lat="59.2993389" lon="18.4888783">
        <ele>10.2312</ele>
        <time>2011-03-26T17:14:10Z</time>
      </trkpt>
      <trkpt lat="59.299335" lon="18.488665">
        <ele>10.2312</ele>
        <time>2011-03-26T17:14:14Z</time>
      </trkpt>
      <trkpt lat="59.2993218" lon="18.4884387">
        <ele>10.2312</ele>
        <time>2011-03-26T17:14:19Z</time>
      </trkpt>
      <trkpt lat="59.2993167" lon="18.4883917">
        <ele>10.7118</ele>
        <time>2011-03-26T17:14:20Z</time>
      </trkpt>
      <trkpt lat="59.2992966" lon="18.4882599">
        <ele>11.6732</ele>
        <time>2011-03-26T17:14:23Z</time>
      </trkpt>
      <trkpt lat="59.2992225" lon="18.4880572">
        <ele>13.1151</ele>
        <time>2011-03-26T17:14:28Z</time>
      </trkpt>
      <trkpt lat="59.2991488" lon="18.4879257">
        <ele>13.1151</ele>
        <time>2011-03-26T17:14:32Z</time>
      </trkpt>
      <trkpt lat="59.2991268" lon="18.4878523">
        <ele>13.5958</ele>
        <time>2011-03-26T17:14:34Z</time>
      </trkpt>
      <trkpt lat="59.2990859" lon="18.4877374">
        <ele>14.0764</ele>
        <time>2011-03-26T17:14:37Z</time>
      </trkpt>
      <trkpt lat="59.2990727" lon="18.4876622">
        <ele>14.0764</ele>
        <time>2011-03-26T17:14:39Z</time>
      </trkpt>
      <trkpt lat="59.2990794" lon="18.4874421">
        <ele>14.557</ele>
        <time>2011-03-26T17:14:44Z</time>
      </trkpt>
      <trkpt lat="59.2991142" lon="18.4873021">
        <ele>14.557</ele>
        <time>2011-03-26T17:14:48Z</time>
      </trkpt>
      <trkpt lat="59.2991398" lon="18.4870556">
        <ele>15.999</ele>
        <time>2011-03-26T17:14:54Z</time>
      </trkpt>
      <trkpt lat="59.2991568" lon="18.4868428">
        <ele>15.999</ele>
        <time>2011-03-26T17:14:59Z</time>
      </trkpt>
      <trkpt lat="59.2991457" lon="18.4866598">
        <ele>17.9218</ele>
        <time>2011-03-26T17:15:03Z</time>
      </trkpt>
      <trkpt lat="59.299119" lon="18.4865107">
        <ele>18.4023</ele>
        <time>2011-03-26T17:15:06Z</time>
      </trkpt>
      <trkpt lat="59.2991195" lon="18.4861671">
        <ele>20.8057</ele>
        <time>2011-03-26T17:15:13Z</time>
      </trkpt>
      <trkpt lat="59.2991464" lon="18.485934">
        <ele>22.2476</ele>
        <time>2011-03-26T17:15:18Z</time>
      </trkpt>
      <trkpt lat="59.2992091" lon="18.4857715">
        <ele>22.7283</ele>
        <time>2011-03-26T17:15:23Z</time>
      </trkpt>
      <trkpt lat="59.2992871" lon="18.485644">
        <ele>23.209</ele>
        <time>2011-03-26T17:15:28Z</time>
      </trkpt>
      <trkpt lat="59.2993774" lon="18.4855398">
        <ele>23.6896</ele>
        <time>2011-03-26T17:15:33Z</time>
      </trkpt>
      <trkpt lat="59.2994619" lon="18.4854185">
        <ele>24.1703</ele>
        <time>2011-03-26T17:15:38Z</time>
      </trkpt>
      <trkpt lat="59.2995199" lon="18.4853488">
        <ele>25.1317</ele>
        <time>2011-03-26T17:15:41Z</time>
      </trkpt>
      <trkpt lat="59.2996515" lon="18.4851556">
        <ele>23.6896</ele>
        <time>2011-03-26T17:15:48Z</time>
      </trkpt>
      <trkpt lat="59.2997427" lon="18.4849524">
        <ele>23.6896</ele>
        <time>2011-03-26T17:15:54Z</time>
      </trkpt>
      <trkpt lat="59.2998152" lon="18.4847596">
        <ele>25.1317</ele>
        <time>2011-03-26T17:15:59Z</time>
      </trkpt>
      <trkpt lat="59.2998602" lon="18.4845234">
        <ele>26.0929</ele>
        <time>2011-03-26T17:16:04Z</time>
      </trkpt>
      <trkpt lat="59.2998812" lon="18.4842545">
        <ele>27.0543</ele>
        <time>2011-03-26T17:16:10Z</time>
      </trkpt>
      <trkpt lat="59.299888" lon="18.4840339">
        <ele>26.5736</ele>
        <time>2011-03-26T17:16:15Z</time>
      </trkpt>
      <trkpt lat="59.299888" lon="18.4837821">
        <ele>25.1317</ele>
        <time>2011-03-26T17:16:20Z</time>
      </trkpt>
      <trkpt lat="59.2998988" lon="18.4835917">
        <ele>23.209</ele>
        <time>2011-03-26T17:16:24Z</time>
      </trkpt>
      <trkpt lat="59.2999445" lon="18.4832938">
        <ele>20.8057</ele>
        <time>2011-03-26T17:16:30Z</time>
      </trkpt>
      <trkpt lat="59.3000035" lon="18.4830545">
        <ele>18.4023</ele>
        <time>2011-03-26T17:16:35Z</time>
      </trkpt>
      <trkpt lat="59.3000902" lon="18.4828363">
        <ele>19.3638</ele>
        <time>2011-03-26T17:16:40Z</time>
      </trkpt>
      <trkpt lat="59.3001875" lon="18.4826582">
        <ele>19.3638</ele>
        <time>2011-03-26T17:16:44Z</time>
      </trkpt>
      <trkpt lat="59.3003071" lon="18.4825145">
        <ele>19.3638</ele>
        <time>2011-03-26T17:16:49Z</time>
      </trkpt>
      <trkpt lat="59.3004103" lon="18.4824126">
        <ele>18.4023</ele>
        <time>2011-03-26T17:16:53Z</time>
      </trkpt>
      <trkpt lat="59.3005414" lon="18.4823081">
        <ele>17.9218</ele>
        <time>2011-03-26T17:16:58Z</time>
      </trkpt>
      <trkpt lat="59.3006907" lon="18.4822631">
        <ele>17.9218</ele>
        <time>2011-03-26T17:17:03Z</time>
      </trkpt>
      <trkpt lat="59.3008292" lon="18.4821956">
        <ele>18.4023</ele>
        <time>2011-03-26T17:17:08Z</time>
      </trkpt>
      <trkpt lat="59.3008748" lon="18.4821464">
        <ele>17.4412</ele>
        <time>2011-03-26T17:17:10Z</time>
      </trkpt>
      <trkpt lat="59.3010614" lon="18.4820837">
        <ele>17.9218</ele>
        <time>2011-03-26T17:17:17Z</time>
      </trkpt>
      <trkpt lat="59.3012055" lon="18.4821515">
        <ele>17.4412</ele>
        <time>2011-03-26T17:17:22Z</time>
      </trkpt>
      <trkpt lat="59.3013294" lon="18.4823469">
        <ele>16.4797</ele>
        <time>2011-03-26T17:17:27Z</time>
      </trkpt>
      <trkpt lat="59.301385" lon="18.4824768">
        <ele>15.999</ele>
        <time>2011-03-26T17:17:30Z</time>
      </trkpt>
      <trkpt lat="59.3014572" lon="18.4827098">
        <ele>13.5958</ele>
        <time>2011-03-26T17:17:35Z</time>
      </trkpt>
      <trkpt lat="59.3014804" lon="18.4828525">
        <ele>13.5958</ele>
        <time>2011-03-26T17:17:38Z</time>
      </trkpt>
      <trkpt lat="59.3015374" lon="18.4830023">
        <ele>13.5958</ele>
        <time>2011-03-26T17:17:41Z</time>
      </trkpt>
      <trkpt lat="59.3015948" lon="18.4831789">
        <ele>13.1151</ele>
        <time>2011-03-26T17:17:45Z</time>
      </trkpt>
      <trkpt lat="59.301702" lon="18.4835207">
        <ele>14.0764</ele>
        <time>2011-03-26T17:17:52Z</time>
      </trkpt>
      <trkpt lat="59.3017683" lon="18.4837446">
        <ele>13.5958</ele>
        <time>2011-03-26T17:17:57Z</time>
      </trkpt>
      <trkpt lat="59.3018027" lon="18.4839225">
        <ele>14.0764</ele>
        <time>2011-03-26T17:18:01Z</time>
      </trkpt>
      <trkpt lat="59.3018541" lon="18.484115">
        <ele>14.557</ele>
        <time>2011-03-26T17:18:05Z</time>
      </trkpt>
      <trkpt lat="59.3019305" lon="18.4844015">
        <ele>15.5184</ele>
        <time>2011-03-26T17:18:11Z</time>
      </trkpt>
      <trkpt lat="59.3020036" lon="18.4846387">
        <ele>16.9604</ele>
        <time>2011-03-26T17:18:16Z</time>
      </trkpt>
      <trkpt lat="59.3020826" lon="18.4848924">
        <ele>16.9604</ele>
        <time>2011-03-26T17:18:22Z</time>
      </trkpt>
      <trkpt lat="59.3021804" lon="18.4850685">
        <ele>15.999</ele>
        <time>2011-03-26T17:18:27Z</time>
      </trkpt>
      <trkpt lat="59.3022595" lon="18.4851939">
        <ele>15.0377</ele>
        <time>2011-03-26T17:18:32Z</time>
      </trkpt>
      <trkpt lat="59.3023435" lon="18.4852794">
        <ele>15.999</ele>
        <time>2011-03-26T17:18:36Z</time>
      </trkpt>
      <trkpt lat="59.3024337" lon="18.4853819">
        <ele>16.4797</ele>
        <time>2011-03-26T17:18:40Z</time>
      </trkpt>
      <trkpt lat="59.3025694" lon="18.4855208">
        <ele>16.4797</ele>
        <time>2011-03-26T17:18:46Z</time>
      </trkpt>
      <trkpt lat="59.3025854" lon="18.4855553">
        <ele>16.4797</ele>
        <time>2011-03-26T17:18:47Z</time>
      </trkpt>
      <trkpt lat="59.3026824" lon="18.4857657">
        <ele>15.999</ele>
        <time>2011-03-26T17:18:53Z</time>
      </trkpt>
      <trkpt lat="59.3027645" lon="18.4859712">
        <ele>15.0377</ele>
        <time>2011-03-26T17:18:58Z</time>
      </trkpt>
      <trkpt lat="59.3027811" lon="18.4860056">
        <ele>14.557</ele>
        <time>2011-03-26T17:18:59Z</time>
      </trkpt>
      <trkpt lat="59.3028336" lon="18.4862973">
        <ele>12.1538</ele>
        <time>2011-03-26T17:19:05Z</time>
      </trkpt>
      <trkpt lat="59.30286" lon="18.4864896">
        <ele>10.2312</ele>
        <time>2011-03-26T17:19:09Z</time>
      </trkpt>
      <trkpt lat="59.3029109" lon="18.4867183">
        <ele>8.30859</ele>
        <time>2011-03-26T17:19:14Z</time>
      </trkpt>
      <trkpt lat="59.3029419" lon="18.4868489">
        <ele>7.82788</ele>
        <time>2011-03-26T17:19:17Z</time>
      </trkpt>
      <trkpt lat="59.3030528" lon="18.4870777">
        <ele>9.2699</ele>
        <time>2011-03-26T17:19:23Z</time>
      </trkpt>
      <trkpt lat="59.3031444" lon="18.4871867">
        <ele>10.2312</ele>
        <time>2011-03-26T17:19:27Z</time>
      </trkpt>
      <trkpt lat="59.3032527" lon="18.4872904">
        <ele>10.7118</ele>
        <time>2011-03-26T17:19:32Z</time>
      </trkpt>
      <trkpt lat="59.3033832" lon="18.4873551">
        <ele>11.1925</ele>
        <time>2011-03-26T17:19:37Z</time>
      </trkpt>
      <trkpt lat="59.3035012" lon="18.4873815">
        <ele>10.2312</ele>
        <time>2011-03-26T17:19:41Z</time>
      </trkpt>
      <trkpt lat="59.3036044" lon="18.4873742">
        <ele>9.2699</ele>
        <time>2011-03-26T17:19:46Z</time>
      </trkpt>
      <trkpt lat="59.3037161" lon="18.4873177">
        <ele>7.82788</ele>
        <time>2011-03-26T17:19:51Z</time>
      </trkpt>
      <trkpt lat="59.3038386" lon="18.4871472">
        <ele>5.42456</ele>
        <time>2011-03-26T17:19:57Z</time>
      </trkpt>
      <trkpt lat="59.3038992" lon="18.4869415">
        <ele>3.50195</ele>
        <time>2011-03-26T17:20:02Z</time>
      </trkpt>
      <trkpt lat="59.3039515" lon="18.4866961">
        <ele>2.06006</ele>
        <time>2011-03-26T17:20:07Z</time>
      </trkpt>
      <trkpt lat="59.3039849" lon="18.4864434">
        <ele>1.57935</ele>
        <time>2011-03-26T17:20:12Z</time>
      </trkpt>
      <trkpt lat="59.3039897" lon="18.486163">
        <ele>2.54065</ele>
        <time>2011-03-26T17:20:17Z</time>
      </trkpt>
      <trkpt lat="59.3040065" lon="18.4859752">
        <ele>1.57935</ele>
        <time>2011-03-26T17:20:21Z</time>
      </trkpt>
      <trkpt lat="59.3040266" lon="18.4858378">
        <ele>1.09863</ele>
        <time>2011-03-26T17:20:24Z</time>
      </trkpt>
      <trkpt lat="59.3041119" lon="18.4855953">
        <ele>1.57935</ele>
        <time>2011-03-26T17:20:30Z</time>
      </trkpt>
      <trkpt lat="59.3042405" lon="18.4855301">
        <ele>0.618042</ele>
        <time>2011-03-26T17:20:35Z</time>
      </trkpt>
      <trkpt lat="59.3043514" lon="18.4855425">
        <ele>0.137451</ele>
        <time>2011-03-26T17:20:39Z</time>
      </trkpt>
      <trkpt lat="59.3045206" lon="18.4855176">
        <ele>0.618042</ele>
        <time>2011-03-26T17:20:45Z</time>
      </trkpt>
      <trkpt lat="59.304674" lon="18.4853353">
        <ele>1.57935</ele>
        <time>2011-03-26T17:20:52Z</time>
      </trkpt>
      <trkpt lat="59.3047296" lon="18.485236">
        <ele>2.54065</ele>
        <time>2011-03-26T17:20:55Z</time>
      </trkpt>
      <trkpt lat="59.304794" lon="18.485297">
        <ele>2.54065</ele>
        <time>2011-03-26T17:20:59Z</time>
      </trkpt>
      <trkpt lat="59.3047966" lon="18.4854027">
        <ele>2.54065</ele>
        <time>2011-03-26T17:21:01Z</time>
      </trkpt>
      <trkpt lat="59.3047834" lon="18.4857404">
        <ele>3.02124</ele>
        <time>2011-03-26T17:21:08Z</time>
      </trkpt>
      <trkpt lat="59.3047666" lon="18.4859381">
        <ele>5.42456</ele>
        <time>2011-03-26T17:21:12Z</time>
      </trkpt>
      <trkpt lat="59.3047849" lon="18.4861874">
        <ele>6.38586</ele>
        <time>2011-03-26T17:21:17Z</time>
      </trkpt>
      <trkpt lat="59.3047987" lon="18.4864511">
        <ele>7.34717</ele>
        <time>2011-03-26T17:21:22Z</time>
      </trkpt>
      <trkpt lat="59.3048104" lon="18.4866511">
        <ele>6.86646</ele>
        <time>2011-03-26T17:21:26Z</time>
      </trkpt>
      <trkpt lat="59.3048091" lon="18.4868857">
        <ele>6.38586</ele>
        <time>2011-03-26T17:21:31Z</time>
      </trkpt>
      <trkpt lat="59.3048025" lon="18.4871343">
        <ele>7.34717</ele>
        <time>2011-03-26T17:21:36Z</time>
      </trkpt>
      <trkpt lat="59.3047968" lon="18.4873229">
        <ele>7.82788</ele>
        <time>2011-03-26T17:21:40Z</time>
      </trkpt>
      <trkpt lat="59.3048145" lon="18.4875595">
        <ele>7.82788</ele>
        <time>2011-03-26T17:21:45Z</time>
      </trkpt>
      <trkpt lat="59.3048077" lon="18.487848">
        <ele>9.2699</ele>
        <time>2011-03-26T17:21:51Z</time>
      </trkpt>
      <trkpt lat="59.3048067" lon="18.4878906">
        <ele>8.78918</ele>
        <time>2011-03-26T17:21:52Z</time>
      </trkpt>
      <trkpt lat="59.304801" lon="18.4881589">
        <ele>7.82788</ele>
        <time>2011-03-26T17:21:57Z</time>
      </trkpt>
      <trkpt lat="59.3048151" lon="18.488446">
        <ele>7.34717</ele>
        <time>2011-03-26T17:22:03Z</time>
      </trkpt>
      <trkpt lat="59.3048351" lon="18.488662">
        <ele>6.86646</ele>
        <time>2011-03-26T17:22:07Z</time>
      </trkpt>
      <trkpt lat="59.304817" lon="18.4889296">
        <ele>5.90527</ele>
        <time>2011-03-26T17:22:12Z</time>
      </trkpt>
      <trkpt lat="59.3047948" lon="18.4891428">
        <ele>5.42456</ele>
        <time>2011-03-26T17:22:16Z</time>
      </trkpt>
      <trkpt lat="59.3047821" lon="18.4893597">
        <ele>3.98267</ele>
        <time>2011-03-26T17:22:20Z</time>
      </trkpt>
      <trkpt lat="59.3047823" lon="18.4896139">
        <ele>3.50195</ele>
        <time>2011-03-26T17:22:25Z</time>
      </trkpt>
      <trkpt lat="59.3047668" lon="18.4898046">
        <ele>3.50195</ele>
        <time>2011-03-26T17:22:29Z</time>
      </trkpt>
      <trkpt lat="59.3047519" lon="18.4900269">
        <ele>3.98267</ele>
        <time>2011-03-26T17:22:33Z</time>
      </trkpt>
      <trkpt lat="59.3047471" lon="18.490277">
        <ele>4.94385</ele>
        <time>2011-03-26T17:22:38Z</time>
      </trkpt>
      <trkpt lat="59.3047164" lon="18.4905411">
        <ele>5.90527</ele>
        <time>2011-03-26T17:22:43Z</time>
      </trkpt>
      <trkpt lat="59.3047058" lon="18.490731">
        <ele>6.38586</ele>
        <time>2011-03-26T17:22:47Z</time>
      </trkpt>
      <trkpt lat="59.3046569" lon="18.4910899">
        <ele>5.42456</ele>
        <time>2011-03-26T17:22:54Z</time>
      </trkpt>
      <trkpt lat="59.3046513" lon="18.4913871">
        <ele>4.94385</ele>
        <time>2011-03-26T17:23:00Z</time>
      </trkpt>
      <trkpt lat="59.3046596" lon="18.4914815">
        <ele>4.94385</ele>
        <time>2011-03-26T17:23:02Z</time>
      </trkpt>
      <trkpt lat="59.3046346" lon="18.4917353">
        <ele>5.42456</ele>
        <time>2011-03-26T17:23:07Z</time>
      </trkpt>
      <trkpt lat="59.3046103" lon="18.4918399">
        <ele>4.94385</ele>
        <time>2011-03-26T17:23:09Z</time>
      </trkpt>
      <trkpt lat="59.3045456" lon="18.4921461">
        <ele>3.50195</ele>
        <time>2011-03-26T17:23:15Z</time>
      </trkpt>
      <trkpt lat="59.3045191" lon="18.4923565">
        <ele>3.98267</ele>
        <time>2011-03-26T17:23:19Z</time>
      </trkpt>
      <trkpt lat="59.3044632" lon="18.4926159">
        <ele>4.94385</ele>
        <time>2011-03-26T17:23:24Z</time>
      </trkpt>
      <trkpt lat="59.3043964" lon="18.4928694">
        <ele>4.46326</ele>
        <time>2011-03-26T17:23:29Z</time>
      </trkpt>
      <trkpt lat="59.3043503" lon="18.4930946">
        <ele>3.50195</ele>
        <time>2011-03-26T17:23:34Z</time>
      </trkpt>
      <trkpt lat="59.304328" lon="18.4931858">
        <ele>3.02124</ele>
        <time>2011-03-26T17:23:36Z</time>
      </trkpt>
      <trkpt lat="59.3042576" lon="18.4934775">
        <ele>4.46326</ele>
        <time>2011-03-26T17:23:42Z</time>
      </trkpt>
      <trkpt lat="59.3041745" lon="18.4937514">
        <ele>5.90527</ele>
        <time>2011-03-26T17:23:48Z</time>
      </trkpt>
      <trkpt lat="59.3040917" lon="18.4940203">
        <ele>6.38586</ele>
        <time>2011-03-26T17:23:54Z</time>
      </trkpt>
      <trkpt lat="59.3040494" lon="18.4942084">
        <ele>6.86646</ele>
        <time>2011-03-26T17:23:58Z</time>
      </trkpt>
      <trkpt lat="59.304026" lon="18.4943047">
        <ele>6.86646</ele>
        <time>2011-03-26T17:24:00Z</time>
      </trkpt>
      <trkpt lat="59.3039207" lon="18.4946056">
        <ele>5.90527</ele>
        <time>2011-03-26T17:24:07Z</time>
      </trkpt>
      <trkpt lat="59.303878" lon="18.4947667">
        <ele>6.38586</ele>
        <time>2011-03-26T17:24:11Z</time>
      </trkpt>
      <trkpt lat="59.3038468" lon="18.4948516">
        <ele>6.38586</ele>
        <time>2011-03-26T17:24:13Z</time>
      </trkpt>
      <trkpt lat="59.3037897" lon="18.4950578">
        <ele>6.38586</ele>
        <time>2011-03-26T17:24:18Z</time>
      </trkpt>
      <trkpt lat="59.3037733" lon="18.4951424">
        <ele>5.90527</ele>
        <time>2011-03-26T17:24:20Z</time>
      </trkpt>
      <trkpt lat="59.3037407" lon="18.495364">
        <ele>4.94385</ele>
        <time>2011-03-26T17:24:25Z</time>
      </trkpt>
      <trkpt lat="59.3036975" lon="18.4956054">
        <ele>3.50195</ele>
        <time>2011-03-26T17:24:30Z</time>
      </trkpt>
      <trkpt lat="59.3036547" lon="18.4958519">
        <ele>3.50195</ele>
        <time>2011-03-26T17:24:35Z</time>
      </trkpt>
      <trkpt lat="59.3036381" lon="18.4960887">
        <ele>3.98267</ele>
        <time>2011-03-26T17:24:40Z</time>
      </trkpt>
      <trkpt lat="59.3036266" lon="18.4963705">
        <ele>2.54065</ele>
        <time>2011-03-26T17:24:46Z</time>
      </trkpt>
      <trkpt lat="59.3036058" lon="18.4965885">
        <ele>2.06006</ele>
        <time>2011-03-26T17:24:50Z</time>
      </trkpt>
      <trkpt lat="59.3035948" lon="18.4967223">
        <ele>3.50195</ele>
        <time>2011-03-26T17:24:53Z</time>
      </trkpt>
      <trkpt lat="59.3035136" lon="18.4970817">
        <ele>3.02124</ele>
        <time>2011-03-26T17:25:00Z</time>
      </trkpt>
      <trkpt lat="59.3034828" lon="18.4972704">
        <ele>3.02124</ele>
        <time>2011-03-26T17:25:04Z</time>
      </trkpt>
      <trkpt lat="59.3034429" lon="18.4975028">
        <ele>2.54065</ele>
        <time>2011-03-26T17:25:09Z</time>
      </trkpt>
      <trkpt lat="59.3034013" lon="18.4977448">
        <ele>2.54065</ele>
        <time>2011-03-26T17:25:14Z</time>
      </trkpt>
      <trkpt lat="59.3033547" lon="18.4980342">
        <ele>2.06006</ele>
        <time>2011-03-26T17:25:20Z</time>
      </trkpt>
      <trkpt lat="59.3033236" lon="18.4982757">
        <ele>2.54065</ele>
        <time>2011-03-26T17:25:25Z</time>
      </trkpt>
      <trkpt lat="59.3032929" lon="18.4985185">
        <ele>2.54065</ele>
        <time>2011-03-26T17:25:30Z</time>
      </trkpt>
      <trkpt lat="59.3032468" lon="18.4988174">
        <ele>2.54065</ele>
        <time>2011-03-26T17:25:36Z</time>
      </trkpt>
      <trkpt lat="59.3032164" lon="18.4990486">
        <ele>3.02124</ele>
        <time>2011-03-26T17:25:41Z</time>
      </trkpt>
      <trkpt lat="59.3031867" lon="18.4992843">
        <ele>3.02124</ele>
        <time>2011-03-26T17:25:46Z</time>
      </trkpt>
      <trkpt lat="59.3031288" lon="18.4994733">
        <ele>3.50195</ele>
        <time>2011-03-26T17:25:50Z</time>
      </trkpt>
      <trkpt lat="59.3030834" lon="18.4996353">
        <ele>3.02124</ele>
        <time>2011-03-26T17:25:54Z</time>
      </trkpt>
      <trkpt lat="59.303029" lon="18.4998536">
        <ele>2.54065</ele>
        <time>2011-03-26T17:25:59Z</time>
      </trkpt>
      <trkpt lat="59.3029968" lon="18.5000727">
        <ele>2.06006</ele>
        <time>2011-03-26T17:26:04Z</time>
      </trkpt>
      <trkpt lat="59.3029475" lon="18.5002781">
        <ele>0.618042</ele>
        <time>2011-03-26T17:26:09Z</time>
      </trkpt>
      <trkpt lat="59.3029334" lon="18.5003627">
        <ele>0.618042</ele>
        <time>2011-03-26T17:26:11Z</time>
      </trkpt>
      <trkpt lat="59.3029321" lon="18.5005741">
        <ele>0.137451</ele>
        <time>2011-03-26T17:26:16Z</time>
      </trkpt>
      <trkpt lat="59.3028771" lon="18.5007666">
        <ele>0</ele>
        <time>2011-03-26T17:26:20Z</time>
      </trkpt>
      <trkpt lat="59.3028284" lon="18.5010521">
        <ele>0</ele>
        <time>2011-03-26T17:26:26Z</time>
      </trkpt>
      <trkpt lat="59.3027999" lon="18.501336">
        <ele>1.57935</ele>
        <time>2011-03-26T17:26:32Z</time>
      </trkpt>
      <trkpt lat="59.3027583" lon="18.5016086">
        <ele>2.06006</ele>
        <time>2011-03-26T17:26:38Z</time>
      </trkpt>
      <trkpt lat="59.3027453" lon="18.5016567">
        <ele>2.06006</ele>
        <time>2011-03-26T17:26:39Z</time>
      </trkpt>
      <trkpt lat="59.3026545" lon="18.5017467">
        <ele>3.50195</ele>
        <time>2011-03-26T17:26:43Z</time>
      </trkpt>
      <trkpt lat="59.3025721" lon="18.5017706">
        <ele>3.50195</ele>
        <time>2011-03-26T17:26:47Z</time>
      </trkpt>
      <trkpt lat="59.3024907" lon="18.501767">
        <ele>3.98267</ele>
        <time>2011-03-26T17:26:51Z</time>
      </trkpt>
      <trkpt lat="59.3024669" lon="18.50169">
        <ele>4.46326</ele>
        <time>2011-03-26T17:26:53Z</time>
      </trkpt>
      <trkpt lat="59.3024262" lon="18.5014904">
        <ele>6.86646</ele>
        <time>2011-03-26T17:26:57Z</time>
      </trkpt>
      <trkpt lat="59.302385" lon="18.5012946">
        <ele>8.30859</ele>
        <time>2011-03-26T17:27:01Z</time>
      </trkpt>
      <trkpt lat="59.3023478" lon="18.5011663">
        <ele>10.2312</ele>
        <time>2011-03-26T17:27:04Z</time>
      </trkpt>
      <trkpt lat="59.302282" lon="18.5009765">
        <ele>13.5958</ele>
        <time>2011-03-26T17:27:09Z</time>
      </trkpt>
      <trkpt lat="59.3022125" lon="18.5008369">
        <ele>15.5184</ele>
        <time>2011-03-26T17:27:13Z</time>
      </trkpt>
      <trkpt lat="59.302186" lon="18.5007663">
        <ele>17.4412</ele>
        <time>2011-03-26T17:27:15Z</time>
      </trkpt>
      <trkpt lat="59.3021223" lon="18.5005486">
        <ele>21.2864</ele>
        <time>2011-03-26T17:27:21Z</time>
      </trkpt>
      <trkpt lat="59.3021104" lon="18.5005187">
        <ele>21.2864</ele>
        <time>2011-03-26T17:27:22Z</time>
      </trkpt>
      <trkpt lat="59.3020445" lon="18.5003436">
        <ele>22.2476</ele>
        <time>2011-03-26T17:27:27Z</time>
      </trkpt>
      <trkpt lat="59.3019966" lon="18.5001334">
        <ele>22.7283</ele>
        <time>2011-03-26T17:27:32Z</time>
      </trkpt>
      <trkpt lat="59.3019443" lon="18.4999272">
        <ele>21.767</ele>
        <time>2011-03-26T17:27:37Z</time>
      </trkpt>
      <trkpt lat="59.3019001" lon="18.4997728">
        <ele>21.2864</ele>
        <time>2011-03-26T17:27:41Z</time>
      </trkpt>
      <trkpt lat="59.3018318" lon="18.4995126">
        <ele>19.3638</ele>
        <time>2011-03-26T17:27:47Z</time>
      </trkpt>
      <trkpt lat="59.3017898" lon="18.4992979">
        <ele>19.3638</ele>
        <time>2011-03-26T17:27:51Z</time>
      </trkpt>
      <trkpt lat="59.3017808" lon="18.4991996">
        <ele>18.8831</ele>
        <time>2011-03-26T17:27:53Z</time>
      </trkpt>
      <trkpt lat="59.3017525" lon="18.4989315">
        <ele>19.3638</ele>
        <time>2011-03-26T17:27:59Z</time>
      </trkpt>
      <trkpt lat="59.3017286" lon="18.498756">
        <ele>19.8444</ele>
        <time>2011-03-26T17:28:03Z</time>
      </trkpt>
      <trkpt lat="59.3016934" lon="18.4985203">
        <ele>20.8057</ele>
        <time>2011-03-26T17:28:08Z</time>
      </trkpt>
      <trkpt lat="59.3016607" lon="18.4983465">
        <ele>20.325</ele>
        <time>2011-03-26T17:28:12Z</time>
      </trkpt>
      <trkpt lat="59.3015805" lon="18.49811">
        <ele>20.8057</ele>
        <time>2011-03-26T17:28:18Z</time>
      </trkpt>
      <trkpt lat="59.301527" lon="18.4979115">
        <ele>20.8057</ele>
        <time>2011-03-26T17:28:23Z</time>
      </trkpt>
      <trkpt lat="59.301479" lon="18.4977151">
        <ele>20.8057</ele>
        <time>2011-03-26T17:28:28Z</time>
      </trkpt>
      <trkpt lat="59.3014205" lon="18.4975913">
        <ele>20.8057</ele>
        <time>2011-03-26T17:28:32Z</time>
      </trkpt>
      <trkpt lat="59.3013532" lon="18.4975931">
        <ele>20.325</ele>
        <time>2011-03-26T17:28:36Z</time>
      </trkpt>
      <trkpt lat="59.3012499" lon="18.4976907">
        <ele>20.325</ele>
        <time>2011-03-26T17:28:42Z</time>
      </trkpt>
      <trkpt lat="59.3011816" lon="18.497793">
        <ele>20.325</ele>
        <time>2011-03-26T17:28:46Z</time>
      </trkpt>
      <trkpt lat="59.3011348" lon="18.4979085">
        <ele>21.767</ele>
        <time>2011-03-26T17:28:51Z</time>
      </trkpt>
      <trkpt lat="59.301066" lon="18.4980639">
        <ele>22.7283</ele>
        <time>2011-03-26T17:28:56Z</time>
      </trkpt>
      <trkpt lat="59.3010329" lon="18.4982136">
        <ele>22.7283</ele>
        <time>2011-03-26T17:29:00Z</time>
      </trkpt>
      <trkpt lat="59.3010196" lon="18.4983556">
        <ele>23.6896</ele>
        <time>2011-03-26T17:29:03Z</time>
      </trkpt>
      <trkpt lat="59.3009817" lon="18.4985314">
        <ele>23.6896</ele>
        <time>2011-03-26T17:29:07Z</time>
      </trkpt>
      <trkpt lat="59.3009509" lon="18.4988438">
        <ele>25.1317</ele>
        <time>2011-03-26T17:29:14Z</time>
      </trkpt>
      <trkpt lat="59.30092" lon="18.4990294">
        <ele>25.1317</ele>
        <time>2011-03-26T17:29:19Z</time>
      </trkpt>
      <trkpt lat="59.3008803" lon="18.4992046">
        <ele>24.651</ele>
        <time>2011-03-26T17:29:23Z</time>
      </trkpt>
      <trkpt lat="59.3008357" lon="18.499505">
        <ele>23.6896</ele>
        <time>2011-03-26T17:29:29Z</time>
      </trkpt>
      <trkpt lat="59.3008129" lon="18.4997353">
        <ele>23.6896</ele>
        <time>2011-03-26T17:29:34Z</time>
      </trkpt>
      <trkpt lat="59.300772" lon="18.4999725">
        <ele>25.1317</ele>
        <time>2011-03-26T17:29:39Z</time>
      </trkpt>
      <trkpt lat="59.300721" lon="18.5002372">
        <ele>26.5736</ele>
        <time>2011-03-26T17:29:45Z</time>
      </trkpt>
      <trkpt lat="59.3006704" lon="18.5005206">
        <ele>28.0155</ele>
        <time>2011-03-26T17:29:51Z</time>
      </trkpt>
      <trkpt lat="59.3006349" lon="18.5007052">
        <ele>28.4962</ele>
        <time>2011-03-26T17:29:55Z</time>
      </trkpt>
      <trkpt lat="59.3005927" lon="18.5009326">
        <ele>28.9769</ele>
        <time>2011-03-26T17:30:00Z</time>
      </trkpt>
      <trkpt lat="59.3005414" lon="18.5011797">
        <ele>27.5349</ele>
        <time>2011-03-26T17:30:05Z</time>
      </trkpt>
      <trkpt lat="59.3005078" lon="18.5013551">
        <ele>27.5349</ele>
        <time>2011-03-26T17:30:09Z</time>
      </trkpt>
      <trkpt lat="59.3004658" lon="18.5015853">
        <ele>28.4962</ele>
        <time>2011-03-26T17:30:13Z</time>
      </trkpt>
      <trkpt lat="59.3004357" lon="18.5016847">
        <ele>28.9769</ele>
        <time>2011-03-26T17:30:15Z</time>
      </trkpt>
      <trkpt lat="59.3003954" lon="18.5019494">
        <ele>28.4962</ele>
        <time>2011-03-26T17:30:21Z</time>
      </trkpt>
      <trkpt lat="59.3003579" lon="18.502141">
        <ele>28.9769</ele>
        <time>2011-03-26T17:30:25Z</time>
      </trkpt>
      <trkpt lat="59.3003229" lon="18.5023429">
        <ele>29.9381</ele>
        <time>2011-03-26T17:30:30Z</time>
      </trkpt>
      <trkpt lat="59.300285" lon="18.5024945">
        <ele>29.4575</ele>
        <time>2011-03-26T17:30:34Z</time>
      </trkpt>
      <trkpt lat="59.3002332" lon="18.5026928">
        <ele>28.4962</ele>
        <time>2011-03-26T17:30:39Z</time>
      </trkpt>
      <trkpt lat="59.3001389" lon="18.502947">
        <ele>28.9769</ele>
        <time>2011-03-26T17:30:45Z</time>
      </trkpt>
      <trkpt lat="59.3000653" lon="18.5031762">
        <ele>29.9381</ele>
        <time>2011-03-26T17:30:50Z</time>
      </trkpt>
      <trkpt lat="59.2999939" lon="18.5034087">
        <ele>30.4188</ele>
        <time>2011-03-26T17:30:55Z</time>
      </trkpt>
      <trkpt lat="59.2999263" lon="18.5036123">
        <ele>30.8995</ele>
        <time>2011-03-26T17:30:59Z</time>
      </trkpt>
      <trkpt lat="59.2998768" lon="18.5038604">
        <ele>31.8607</ele>
        <time>2011-03-26T17:31:04Z</time>
      </trkpt>
      <trkpt lat="59.2997726" lon="18.5041271">
        <ele>31.3801</ele>
        <time>2011-03-26T17:31:10Z</time>
      </trkpt>
      <trkpt lat="59.2997552" lon="18.5041754">
        <ele>30.8995</ele>
        <time>2011-03-26T17:31:11Z</time>
      </trkpt>
      <trkpt lat="59.2997148" lon="18.5043836">
        <ele>30.4188</ele>
        <time>2011-03-26T17:31:15Z</time>
      </trkpt>
      <trkpt lat="59.2996535" lon="18.5045748">
        <ele>29.9381</ele>
        <time>2011-03-26T17:31:19Z</time>
      </trkpt>
      <trkpt lat="59.2995845" lon="18.5047824">
        <ele>27.0543</ele>
        <time>2011-03-26T17:31:23Z</time>
      </trkpt>
      <trkpt lat="59.2995039" lon="18.5050011">
        <ele>25.6123</ele>
        <time>2011-03-26T17:31:27Z</time>
      </trkpt>
      <trkpt lat="59.2993743" lon="18.5051985">
        <ele>24.651</ele>
        <time>2011-03-26T17:31:33Z</time>
      </trkpt>
      <trkpt lat="59.2992814" lon="18.505298">
        <ele>24.651</ele>
        <time>2011-03-26T17:31:37Z</time>
      </trkpt>
      <trkpt lat="59.2991635" lon="18.5054387">
        <ele>23.6896</ele>
        <time>2011-03-26T17:31:42Z</time>
      </trkpt>
      <trkpt lat="59.2991683" lon="18.5055605">
        <ele>23.209</ele>
        <time>2011-03-26T17:31:45Z</time>
      </trkpt>
      <trkpt lat="59.2991862" lon="18.5056543">
        <ele>23.209</ele>
        <time>2011-03-26T17:31:47Z</time>
      </trkpt>
      <trkpt lat="59.299223" lon="18.5058856">
        <ele>23.209</ele>
        <time>2011-03-26T17:31:52Z</time>
      </trkpt>
      <trkpt lat="59.2992971" lon="18.506179">
        <ele>24.1703</ele>
        <time>2011-03-26T17:31:57Z</time>
      </trkpt>
      <trkpt lat="59.2993496" lon="18.5064489">
        <ele>23.6896</ele>
        <time>2011-03-26T17:32:02Z</time>
      </trkpt>
      <trkpt lat="59.2993751" lon="18.5066406">
        <ele>25.1317</ele>
        <time>2011-03-26T17:32:06Z</time>
      </trkpt>
      <trkpt lat="59.2994145" lon="18.506874">
        <ele>25.6123</ele>
        <time>2011-03-26T17:32:10Z</time>
      </trkpt>
      <trkpt lat="59.2994111" lon="18.5071141">
        <ele>26.5736</ele>
        <time>2011-03-26T17:32:14Z</time>
      </trkpt>
    </trkseg>
  </trk>
</gpx>